sensor_id;sensor_type;location;lat;lon;timestamp;P1;durP1;ratioP1;P2;durP2;ratioP2
83232;SDS011;73119;42.642;23.332;2023-11-21T00:01:06;8.43;;;3.78;;
83232;SDS011;73119;42.642;23.332;2023-11-21T00:03:33;8.57;;;4.10;;
83232;SDS011;73119;42.642;23.332;2023-11-21T00:05:59;10.73;;;3.97;;
83232;SDS011;73119;42.642;23.332;2023-11-21T00:08:25;8.27;;;4.95;;
83232;SDS011;73119;42.642;23.332;2023-11-21T00:10:52;6.82;;;3.97;;
83232;SDS011;73119;42.642;23.332;2023-11-21T00:13:19;10.73;;;5.03;;
83232;SDS011;73119;42.642;23.332;2023-11-21T00:15:46;6.25;;;4.53;;
83232;SDS011;73119;42.642;23.332;2023-11-21T00:18:12;7.72;;;4.78;;
83232;SDS011;73119;42.642;23.332;2023-11-21T00:20:39;10.30;;;5.97;;
83232;SDS011;73119;42.642;23.332;2023-11-21T00:23:05;8.70;;;5.18;;
83232;SDS011;73119;42.642;23.332;2023-11-21T00:25:31;13.35;;;6.32;;
83232;SDS011;73119;42.642;23.332;2023-11-21T00:27:58;11.40;;;5.05;;
83232;SDS011;73119;42.642;23.332;2023-11-21T00:30:26;11.05;;;5.75;;
83232;SDS011;73119;42.642;23.332;2023-11-21T00:32:52;7.75;;;4.50;;
83232;SDS011;73119;42.642;23.332;2023-11-21T00:35:19;17.02;;;7.00;;
83232;SDS011;73119;42.642;23.332;2023-11-21T00:37:45;9.35;;;7.10;;
83232;SDS011;73119;42.642;23.332;2023-11-21T00:40:11;13.38;;;5.70;;
83232;SDS011;73119;42.642;23.332;2023-11-21T00:42:40;10.73;;;5.88;;
83232;SDS011;73119;42.642;23.332;2023-11-21T00:45:06;17.85;;;7.70;;
83232;SDS011;73119;42.642;23.332;2023-11-21T00:47:32;8.98;;;5.38;;
83232;SDS011;73119;42.642;23.332;2023-11-21T00:49:58;15.75;;;7.70;;
83232;SDS011;73119;42.642;23.332;2023-11-21T00:52:24;13.00;;;6.88;;
83232;SDS011;73119;42.642;23.332;2023-11-21T00:54:51;12.15;;;6.20;;
83232;SDS011;73119;42.642;23.332;2023-11-21T00:57:17;13.25;;;6.13;;
83232;SDS011;73119;42.642;23.332;2023-11-21T00:59:43;16.33;;;7.25;;
83232;SDS011;73119;42.642;23.332;2023-11-21T01:02:09;11.73;;;6.43;;
83232;SDS011;73119;42.642;23.332;2023-11-21T01:04:36;16.02;;;8.13;;
83232;SDS011;73119;42.642;23.332;2023-11-21T01:07:02;8.65;;;5.63;;
83232;SDS011;73119;42.642;23.332;2023-11-21T01:09:30;12.93;;;6.85;;
83232;SDS011;73119;42.642;23.332;2023-11-21T01:11:56;11.48;;;6.78;;
83232;SDS011;73119;42.642;23.332;2023-11-21T01:16:51;15.70;;;6.85;;
83232;SDS011;73119;42.642;23.332;2023-11-21T01:19:17;11.07;;;6.25;;
83232;SDS011;73119;42.642;23.332;2023-11-21T01:21:43;11.43;;;6.20;;
83232;SDS011;73119;42.642;23.332;2023-11-21T01:24:09;9.27;;;5.75;;
83232;SDS011;73119;42.642;23.332;2023-11-21T01:26:36;13.52;;;7.78;;
83232;SDS011;73119;42.642;23.332;2023-11-21T01:29:02;10.85;;;5.97;;
83232;SDS011;73119;42.642;23.332;2023-11-21T01:31:28;14.15;;;7.03;;
83232;SDS011;73119;42.642;23.332;2023-11-21T01:33:55;13.30;;;6.75;;
83232;SDS011;73119;42.642;23.332;2023-11-21T01:36:22;10.20;;;6.53;;
83232;SDS011;73119;42.642;23.332;2023-11-21T01:38:48;10.75;;;5.65;;
83232;SDS011;73119;42.642;23.332;2023-11-21T01:41:14;12.35;;;6.95;;
83232;SDS011;73119;42.642;23.332;2023-11-21T01:43:40;11.07;;;6.05;;
83232;SDS011;73119;42.642;23.332;2023-11-21T01:46:07;12.82;;;6.40;;
83232;SDS011;73119;42.642;23.332;2023-11-21T01:48:34;10.20;;;5.85;;
83232;SDS011;73119;42.642;23.332;2023-11-21T01:51:00;10.07;;;6.43;;
83232;SDS011;73119;42.642;23.332;2023-11-21T01:53:26;11.88;;;6.93;;
83232;SDS011;73119;42.642;23.332;2023-11-21T01:55:53;10.13;;;5.90;;
83232;SDS011;73119;42.642;23.332;2023-11-21T01:58:19;18.05;;;6.80;;
83232;SDS011;73119;42.642;23.332;2023-11-21T02:00:45;11.65;;;6.07;;
83232;SDS011;73119;42.642;23.332;2023-11-21T02:03:11;6.70;;;5.65;;
83232;SDS011;73119;42.642;23.332;2023-11-21T02:05:37;13.15;;;7.45;;
83232;SDS011;73119;42.642;23.332;2023-11-21T02:08:03;11.45;;;5.35;;
83232;SDS011;73119;42.642;23.332;2023-11-21T02:10:30;8.35;;;5.30;;
83232;SDS011;73119;42.642;23.332;2023-11-21T02:12:56;14.73;;;5.20;;
83232;SDS011;73119;42.642;23.332;2023-11-21T02:15:23;7.80;;;4.55;;
83232;SDS011;73119;42.642;23.332;2023-11-21T02:17:53;7.70;;;4.57;;
83232;SDS011;73119;42.642;23.332;2023-11-21T02:20:20;8.05;;;4.40;;
83232;SDS011;73119;42.642;23.332;2023-11-21T02:22:49;9.93;;;4.45;;
83232;SDS011;73119;42.642;23.332;2023-11-21T02:25:18;8.70;;;4.80;;
83232;SDS011;73119;42.642;23.332;2023-11-21T02:27:44;7.88;;;3.63;;
83232;SDS011;73119;42.642;23.332;2023-11-21T02:30:13;13.23;;;4.35;;
83232;SDS011;73119;42.642;23.332;2023-11-21T02:32:39;8.80;;;4.75;;
83232;SDS011;73119;42.642;23.332;2023-11-21T02:35:07;9.13;;;5.25;;
83232;SDS011;73119;42.642;23.332;2023-11-21T02:37:34;10.85;;;5.85;;
83232;SDS011;73119;42.642;23.332;2023-11-21T02:40:00;10.30;;;5.18;;
83232;SDS011;73119;42.642;23.332;2023-11-21T02:42:29;13.40;;;7.05;;
83232;SDS011;73119;42.642;23.332;2023-11-21T02:44:55;7.93;;;5.18;;
83232;SDS011;73119;42.642;23.332;2023-11-21T02:47:22;9.55;;;5.47;;
83232;SDS011;73119;42.642;23.332;2023-11-21T02:49:48;10.20;;;6.07;;
83232;SDS011;73119;42.642;23.332;2023-11-21T02:52:14;10.00;;;4.78;;
83232;SDS011;73119;42.642;23.332;2023-11-21T02:54:41;11.07;;;5.70;;
83232;SDS011;73119;42.642;23.332;2023-11-21T02:57:07;7.72;;;5.00;;
83232;SDS011;73119;42.642;23.332;2023-11-21T02:59:33;10.57;;;6.65;;
83232;SDS011;73119;42.642;23.332;2023-11-21T03:02:00;13.00;;;4.82;;
83232;SDS011;73119;42.642;23.332;2023-11-21T03:04:26;7.90;;;4.38;;
83232;SDS011;73119;42.642;23.332;2023-11-21T03:06:52;9.77;;;5.13;;
83232;SDS011;73119;42.642;23.332;2023-11-21T03:09:18;11.98;;;6.00;;
83232;SDS011;73119;42.642;23.332;2023-11-21T03:11:44;11.40;;;5.03;;
83232;SDS011;73119;42.642;23.332;2023-11-21T03:14:10;7.97;;;5.43;;
83232;SDS011;73119;42.642;23.332;2023-11-21T03:16:36;10.45;;;5.50;;
83232;SDS011;73119;42.642;23.332;2023-11-21T03:19:03;6.75;;;3.97;;
83232;SDS011;73119;42.642;23.332;2023-11-21T03:21:30;7.47;;;3.85;;
83232;SDS011;73119;42.642;23.332;2023-11-21T03:23:56;5.45;;;3.20;;
83232;SDS011;73119;42.642;23.332;2023-11-21T03:26:22;5.85;;;3.25;;
83232;SDS011;73119;42.642;23.332;2023-11-21T03:28:48;5.40;;;3.88;;
83232;SDS011;73119;42.642;23.332;2023-11-21T03:31:15;4.63;;;3.25;;
83232;SDS011;73119;42.642;23.332;2023-11-21T03:33:42;5.78;;;3.58;;
83232;SDS011;73119;42.642;23.332;2023-11-21T03:36:10;7.07;;;3.28;;
83232;SDS011;73119;42.642;23.332;2023-11-21T03:38:36;4.32;;;2.55;;
83232;SDS011;73119;42.642;23.332;2023-11-21T03:41:02;6.07;;;3.20;;
83232;SDS011;73119;42.642;23.332;2023-11-21T03:43:29;4.10;;;3.05;;
83232;SDS011;73119;42.642;23.332;2023-11-21T03:45:55;7.00;;;3.15;;
83232;SDS011;73119;42.642;23.332;2023-11-21T03:48:21;5.35;;;3.40;;
83232;SDS011;73119;42.642;23.332;2023-11-21T03:50:48;3.58;;;2.00;;
83232;SDS011;73119;42.642;23.332;2023-11-21T03:53:14;4.78;;;2.70;;
83232;SDS011;73119;42.642;23.332;2023-11-21T03:55:40;3.78;;;2.85;;
83232;SDS011;73119;42.642;23.332;2023-11-21T03:58:06;5.47;;;2.97;;
83232;SDS011;73119;42.642;23.332;2023-11-21T04:00:32;9.90;;;3.83;;
83232;SDS011;73119;42.642;23.332;2023-11-21T04:02:58;3.55;;;2.83;;
83232;SDS011;73119;42.642;23.332;2023-11-21T04:05:24;21.83;;;3.80;;
83232;SDS011;73119;42.642;23.332;2023-11-21T04:07:50;5.28;;;3.78;;
83232;SDS011;73119;42.642;23.332;2023-11-21T04:10:16;5.88;;;3.40;;
83232;SDS011;73119;42.642;23.332;2023-11-21T04:12:43;8.10;;;3.65;;
83232;SDS011;73119;42.642;23.332;2023-11-21T04:15:10;9.45;;;3.75;;
83232;SDS011;73119;42.642;23.332;2023-11-21T04:20:04;7.60;;;4.30;;
83232;SDS011;73119;42.642;23.332;2023-11-21T04:22:34;6.85;;;3.80;;
83232;SDS011;73119;42.642;23.332;2023-11-21T04:25:00;7.75;;;3.58;;
83232;SDS011;73119;42.642;23.332;2023-11-21T04:27:26;9.65;;;4.43;;
83232;SDS011;73119;42.642;23.332;2023-11-21T04:29:52;8.88;;;5.80;;
83232;SDS011;73119;42.642;23.332;2023-11-21T04:32:18;8.82;;;5.13;;
83232;SDS011;73119;42.642;23.332;2023-11-21T04:34:44;7.53;;;4.97;;
83232;SDS011;73119;42.642;23.332;2023-11-21T04:37:10;9.98;;;5.55;;
83232;SDS011;73119;42.642;23.332;2023-11-21T04:39:36;12.15;;;4.65;;
83232;SDS011;73119;42.642;23.332;2023-11-21T04:42:03;10.10;;;4.53;;
83232;SDS011;73119;42.642;23.332;2023-11-21T04:44:29;8.15;;;4.53;;
83232;SDS011;73119;42.642;23.332;2023-11-21T04:46:55;12.68;;;5.18;;
83232;SDS011;73119;42.642;23.332;2023-11-21T04:49:21;8.80;;;4.95;;
83232;SDS011;73119;42.642;23.332;2023-11-21T04:51:47;7.75;;;5.15;;
83232;SDS011;73119;42.642;23.332;2023-11-21T04:54:13;8.93;;;4.93;;
83232;SDS011;73119;42.642;23.332;2023-11-21T04:56:39;6.28;;;3.70;;
83232;SDS011;73119;42.642;23.332;2023-11-21T04:59:05;8.90;;;4.57;;
83232;SDS011;73119;42.642;23.332;2023-11-21T05:01:31;7.55;;;4.95;;
83232;SDS011;73119;42.642;23.332;2023-11-21T05:03:57;8.63;;;4.63;;
83232;SDS011;73119;42.642;23.332;2023-11-21T05:06:23;6.10;;;3.88;;
83232;SDS011;73119;42.642;23.332;2023-11-21T05:08:49;7.53;;;4.45;;
83232;SDS011;73119;42.642;23.332;2023-11-21T05:11:28;7.22;;;3.95;;
83232;SDS011;73119;42.642;23.332;2023-11-21T05:13:54;14.98;;;4.43;;
83232;SDS011;73119;42.642;23.332;2023-11-21T05:16:26;4.80;;;3.42;;
83232;SDS011;73119;42.642;23.332;2023-11-21T05:18:55;9.20;;;3.88;;
83232;SDS011;73119;42.642;23.332;2023-11-21T05:21:26;8.10;;;4.80;;
83232;SDS011;73119;42.642;23.332;2023-11-21T05:23:52;13.70;;;5.50;;
83232;SDS011;73119;42.642;23.332;2023-11-21T05:26:18;6.30;;;5.18;;
83232;SDS011;73119;42.642;23.332;2023-11-21T05:28:44;6.30;;;4.70;;
83232;SDS011;73119;42.642;23.332;2023-11-21T05:31:10;11.18;;;4.65;;
83232;SDS011;73119;42.642;23.332;2023-11-21T05:33:36;8.05;;;5.18;;
83232;SDS011;73119;42.642;23.332;2023-11-21T05:36:02;10.02;;;5.22;;
83232;SDS011;73119;42.642;23.332;2023-11-21T05:38:29;9.90;;;4.78;;
83232;SDS011;73119;42.642;23.332;2023-11-21T05:40:55;8.77;;;4.47;;
83232;SDS011;73119;42.642;23.332;2023-11-21T05:43:21;9.02;;;4.35;;
83232;SDS011;73119;42.642;23.332;2023-11-21T05:45:47;11.45;;;6.03;;
83232;SDS011;73119;42.642;23.332;2023-11-21T05:48:13;12.23;;;6.30;;
83232;SDS011;73119;42.642;23.332;2023-11-21T05:50:40;9.10;;;4.57;;
83232;SDS011;73119;42.642;23.332;2023-11-21T05:53:06;10.68;;;6.70;;
83232;SDS011;73119;42.642;23.332;2023-11-21T05:58:01;8.55;;;5.10;;
83232;SDS011;73119;42.642;23.332;2023-11-21T06:00:27;9.45;;;5.40;;
83232;SDS011;73119;42.642;23.332;2023-11-21T06:02:53;18.58;;;7.38;;
83232;SDS011;73119;42.642;23.332;2023-11-21T06:05:21;12.93;;;7.30;;
83232;SDS011;73119;42.642;23.332;2023-11-21T06:07:48;14.88;;;8.68;;
83232;SDS011;73119;42.642;23.332;2023-11-21T06:10:14;13.05;;;7.15;;
83232;SDS011;73119;42.642;23.332;2023-11-21T06:12:42;20.33;;;7.90;;
83232;SDS011;73119;42.642;23.332;2023-11-21T06:15:09;14.70;;;9.13;;
83232;SDS011;73119;42.642;23.332;2023-11-21T06:17:39;15.02;;;9.30;;
83232;SDS011;73119;42.642;23.332;2023-11-21T06:20:05;22.25;;;9.85;;
83232;SDS011;73119;42.642;23.332;2023-11-21T06:22:37;23.13;;;14.15;;
83232;SDS011;73119;42.642;23.332;2023-11-21T06:25:04;20.88;;;12.10;;
83232;SDS011;73119;42.642;23.332;2023-11-21T06:27:32;17.42;;;9.02;;
83232;SDS011;73119;42.642;23.332;2023-11-21T06:29:58;14.13;;;8.88;;
83232;SDS011;73119;42.642;23.332;2023-11-21T06:32:24;12.63;;;8.38;;
83232;SDS011;73119;42.642;23.332;2023-11-21T06:34:51;16.42;;;8.45;;
83232;SDS011;73119;42.642;23.332;2023-11-21T06:37:20;25.42;;;9.18;;
83232;SDS011;73119;42.642;23.332;2023-11-21T06:39:48;15.00;;;7.30;;
83232;SDS011;73119;42.642;23.332;2023-11-21T06:42:17;16.33;;;9.48;;
83232;SDS011;73119;42.642;23.332;2023-11-21T06:44:44;19.85;;;11.88;;
83232;SDS011;73119;42.642;23.332;2023-11-21T06:47:14;16.02;;;9.52;;
83232;SDS011;73119;42.642;23.332;2023-11-21T06:49:45;14.90;;;8.05;;
83232;SDS011;73119;42.642;23.332;2023-11-21T06:52:13;14.57;;;9.50;;
83232;SDS011;73119;42.642;23.332;2023-11-21T06:54:39;13.75;;;8.60;;
83232;SDS011;73119;42.642;23.332;2023-11-21T06:57:05;17.20;;;8.13;;
83232;SDS011;73119;42.642;23.332;2023-11-21T06:59:31;10.05;;;6.68;;
83232;SDS011;73119;42.642;23.332;2023-11-21T07:01:58;12.93;;;7.13;;
83232;SDS011;73119;42.642;23.332;2023-11-21T07:04:24;12.32;;;6.93;;
83232;SDS011;73119;42.642;23.332;2023-11-21T07:06:54;17.77;;;7.95;;
83232;SDS011;73119;42.642;23.332;2023-11-21T07:09:21;19.15;;;7.32;;
83232;SDS011;73119;42.642;23.332;2023-11-21T07:11:48;12.02;;;7.22;;
83232;SDS011;73119;42.642;23.332;2023-11-21T07:14:14;12.20;;;6.47;;
83232;SDS011;73119;42.642;23.332;2023-11-21T07:16:42;12.38;;;7.43;;
83232;SDS011;73119;42.642;23.332;2023-11-21T07:19:08;14.25;;;7.07;;
83232;SDS011;73119;42.642;23.332;2023-11-21T07:21:35;11.35;;;6.25;;
83232;SDS011;73119;42.642;23.332;2023-11-21T07:24:02;11.20;;;7.00;;
83232;SDS011;73119;42.642;23.332;2023-11-21T07:26:28;10.80;;;7.32;;
83232;SDS011;73119;42.642;23.332;2023-11-21T07:28:54;11.88;;;6.57;;
83232;SDS011;73119;42.642;23.332;2023-11-21T07:31:23;11.52;;;8.10;;
83232;SDS011;73119;42.642;23.332;2023-11-21T07:33:49;13.85;;;8.10;;
83232;SDS011;73119;42.642;23.332;2023-11-21T07:36:16;16.75;;;7.25;;
83232;SDS011;73119;42.642;23.332;2023-11-21T07:38:49;12.63;;;8.38;;
83232;SDS011;73119;42.642;23.332;2023-11-21T07:41:15;14.40;;;8.90;;
83232;SDS011;73119;42.642;23.332;2023-11-21T07:43:42;17.73;;;9.55;;
83232;SDS011;73119;42.642;23.332;2023-11-21T07:46:08;14.18;;;8.23;;
83232;SDS011;73119;42.642;23.332;2023-11-21T07:48:35;19.75;;;9.35;;
83232;SDS011;73119;42.642;23.332;2023-11-21T07:51:02;11.00;;;7.65;;
83232;SDS011;73119;42.642;23.332;2023-11-21T07:53:34;16.55;;;9.27;;
83232;SDS011;73119;42.642;23.332;2023-11-21T07:56:04;14.50;;;8.25;;
83232;SDS011;73119;42.642;23.332;2023-11-21T07:58:30;14.02;;;9.05;;
83232;SDS011;73119;42.642;23.332;2023-11-21T08:00:58;12.98;;;7.57;;
83232;SDS011;73119;42.642;23.332;2023-11-21T08:03:24;16.95;;;9.07;;
83232;SDS011;73119;42.642;23.332;2023-11-21T08:05:51;12.95;;;8.98;;
83232;SDS011;73119;42.642;23.332;2023-11-21T08:08:18;15.60;;;9.70;;
83232;SDS011;73119;42.642;23.332;2023-11-21T08:10:44;17.58;;;10.82;;
83232;SDS011;73119;42.642;23.332;2023-11-21T08:13:13;18.85;;;10.15;;
83232;SDS011;73119;42.642;23.332;2023-11-21T08:15:41;21.90;;;9.27;;
83232;SDS011;73119;42.642;23.332;2023-11-21T08:18:11;13.38;;;9.32;;
83232;SDS011;73119;42.642;23.332;2023-11-21T08:20:39;18.85;;;9.57;;
83232;SDS011;73119;42.642;23.332;2023-11-21T08:23:05;24.75;;;10.57;;
83232;SDS011;73119;42.642;23.332;2023-11-21T08:25:32;14.07;;;7.97;;
83232;SDS011;73119;42.642;23.332;2023-11-21T08:27:59;22.15;;;9.80;;
83232;SDS011;73119;42.642;23.332;2023-11-21T08:30:26;16.48;;;9.00;;
83232;SDS011;73119;42.642;23.332;2023-11-21T08:32:55;23.98;;;11.32;;
83232;SDS011;73119;42.642;23.332;2023-11-21T08:37:51;11.70;;;8.18;;
83232;SDS011;73119;42.642;23.332;2023-11-21T08:40:18;26.05;;;14.77;;
83232;SDS011;73119;42.642;23.332;2023-11-21T08:42:45;11.45;;;9.38;;
83232;SDS011;73119;42.642;23.332;2023-11-21T08:45:11;18.10;;;8.32;;
83232;SDS011;73119;42.642;23.332;2023-11-21T08:47:38;28.25;;;10.40;;
83232;SDS011;73119;42.642;23.332;2023-11-21T08:50:05;13.75;;;8.27;;
83232;SDS011;73119;42.642;23.332;2023-11-21T08:52:35;15.82;;;8.05;;
83232;SDS011;73119;42.642;23.332;2023-11-21T08:55:02;13.95;;;8.32;;
83232;SDS011;73119;42.642;23.332;2023-11-21T08:57:35;17.63;;;9.63;;
83232;SDS011;73119;42.642;23.332;2023-11-21T09:00:02;23.33;;;13.75;;
83232;SDS011;73119;42.642;23.332;2023-11-21T09:02:32;15.98;;;9.13;;
83232;SDS011;73119;42.642;23.332;2023-11-21T09:04:59;25.80;;;11.73;;
83232;SDS011;73119;42.642;23.332;2023-11-21T09:07:28;19.60;;;10.45;;
83232;SDS011;73119;42.642;23.332;2023-11-21T09:09:54;17.10;;;11.38;;
83232;SDS011;73119;42.642;23.332;2023-11-21T09:12:20;15.52;;;9.20;;
83232;SDS011;73119;42.642;23.332;2023-11-21T09:14:47;18.42;;;10.43;;
83232;SDS011;73119;42.642;23.332;2023-11-21T09:17:15;14.23;;;8.85;;
83232;SDS011;73119;42.642;23.332;2023-11-21T09:19:41;18.30;;;8.77;;
83232;SDS011;73119;42.642;23.332;2023-11-21T09:22:10;15.27;;;8.18;;
83232;SDS011;73119;42.642;23.332;2023-11-21T09:24:36;16.15;;;7.88;;
83232;SDS011;73119;42.642;23.332;2023-11-21T09:27:02;25.63;;;15.10;;
83232;SDS011;73119;42.642;23.332;2023-11-21T09:29:30;12.55;;;10.35;;
83232;SDS011;73119;42.642;23.332;2023-11-21T09:31:57;15.13;;;10.70;;
83232;SDS011;73119;42.642;23.332;2023-11-21T09:34:26;23.77;;;8.52;;
83232;SDS011;73119;42.642;23.332;2023-11-21T09:36:52;16.30;;;7.95;;
83232;SDS011;73119;42.642;23.332;2023-11-21T09:39:19;11.85;;;7.50;;
83232;SDS011;73119;42.642;23.332;2023-11-21T09:47:23;8.93;;;6.93;;
83232;SDS011;73119;42.642;23.332;2023-11-21T09:49:49;22.25;;;7.30;;
83232;SDS011;73119;42.642;23.332;2023-11-21T09:52:26;12.80;;;7.32;;
83232;SDS011;73119;42.642;23.332;2023-11-21T09:54:53;12.30;;;6.95;;
83232;SDS011;73119;42.642;23.332;2023-11-21T09:57:22;15.02;;;7.88;;
83232;SDS011;73119;42.642;23.332;2023-11-21T09:59:50;13.75;;;8.15;;
83232;SDS011;73119;42.642;23.332;2023-11-21T10:02:18;12.98;;;7.00;;
83232;SDS011;73119;42.642;23.332;2023-11-21T10:04:46;21.55;;;8.65;;
83232;SDS011;73119;42.642;23.332;2023-11-21T10:07:13;12.27;;;7.82;;
83232;SDS011;73119;42.642;23.332;2023-11-21T10:09:40;16.02;;;7.93;;
83232;SDS011;73119;42.642;23.332;2023-11-21T10:12:07;14.77;;;7.80;;
83232;SDS011;73119;42.642;23.332;2023-11-21T10:14:35;15.00;;;8.50;;
83232;SDS011;73119;42.642;23.332;2023-11-21T10:17:04;23.27;;;8.07;;
83232;SDS011;73119;42.642;23.332;2023-11-21T10:19:30;11.13;;;7.57;;
83232;SDS011;73119;42.642;23.332;2023-11-21T10:21:57;12.60;;;7.03;;
83232;SDS011;73119;42.642;23.332;2023-11-21T10:24:25;17.10;;;8.57;;
83232;SDS011;73119;42.642;23.332;2023-11-21T10:26:51;15.52;;;7.78;;
83232;SDS011;73119;42.642;23.332;2023-11-21T10:29:18;12.23;;;7.03;;
83232;SDS011;73119;42.642;23.332;2023-11-21T10:31:48;12.60;;;8.00;;
83232;SDS011;73119;42.642;23.332;2023-11-21T10:34:15;13.85;;;8.40;;
83232;SDS011;73119;42.642;23.332;2023-11-21T10:36:41;12.43;;;7.57;;
83232;SDS011;73119;42.642;23.332;2023-11-21T10:39:08;10.90;;;7.00;;
83232;SDS011;73119;42.642;23.332;2023-11-21T10:41:35;20.00;;;9.00;;
83232;SDS011;73119;42.642;23.332;2023-11-21T10:44:01;12.35;;;7.78;;
83232;SDS011;73119;42.642;23.332;2023-11-21T10:46:31;11.75;;;7.90;;
83232;SDS011;73119;42.642;23.332;2023-11-21T10:48:57;17.42;;;7.05;;
83232;SDS011;73119;42.642;23.332;2023-11-21T10:51:23;12.90;;;7.20;;
83232;SDS011;73119;42.642;23.332;2023-11-21T10:53:53;14.18;;;6.85;;
83232;SDS011;73119;42.642;23.332;2023-11-21T10:56:20;23.25;;;11.65;;
83232;SDS011;73119;42.642;23.332;2023-11-21T10:58:51;27.60;;;16.33;;
83232;SDS011;73119;42.642;23.332;2023-11-21T11:01:18;13.98;;;8.60;;
83232;SDS011;73119;42.642;23.332;2023-11-21T11:03:46;18.83;;;9.35;;
83232;SDS011;73119;42.642;23.332;2023-11-21T11:06:14;17.80;;;7.97;;
83232;SDS011;73119;42.642;23.332;2023-11-21T11:08:40;10.80;;;7.10;;
83232;SDS011;73119;42.642;23.332;2023-11-21T11:11:06;15.35;;;8.27;;
83232;SDS011;73119;42.642;23.332;2023-11-21T11:13:34;20.60;;;9.00;;
83232;SDS011;73119;42.642;23.332;2023-11-21T11:16:01;12.15;;;7.22;;
83232;SDS011;73119;42.642;23.332;2023-11-21T11:18:29;13.00;;;7.43;;
83232;SDS011;73119;42.642;23.332;2023-11-21T11:20:57;10.50;;;6.90;;
83232;SDS011;73119;42.642;23.332;2023-11-21T11:36:34;10.90;;;6.60;;
83232;SDS011;73119;42.642;23.332;2023-11-21T11:41:28;13.98;;;6.45;;
83232;SDS011;73119;42.642;23.332;2023-11-21T11:43:55;12.43;;;6.63;;
83232;SDS011;73119;42.642;23.332;2023-11-21T11:46:39;11.98;;;6.85;;
83232;SDS011;73119;42.642;23.332;2023-11-21T11:49:06;17.55;;;8.43;;
83232;SDS011;73119;42.642;23.332;2023-11-21T11:51:33;10.88;;;6.53;;
83232;SDS011;73119;42.642;23.332;2023-11-21T11:54:01;14.35;;;7.45;;
83232;SDS011;73119;42.642;23.332;2023-11-21T11:56:31;16.73;;;8.27;;
83232;SDS011;73119;42.642;23.332;2023-11-21T11:59:00;12.88;;;8.32;;
83232;SDS011;73119;42.642;23.332;2023-11-21T12:01:27;15.43;;;9.80;;
83232;SDS011;73119;42.642;23.332;2023-11-21T12:06:45;36.03;;;18.42;;
83232;SDS011;73119;42.642;23.332;2023-11-21T12:09:17;19.67;;;11.68;;
83232;SDS011;73119;42.642;23.332;2023-11-21T12:11:43;20.98;;;11.70;;
83232;SDS011;73119;42.642;23.332;2023-11-21T12:14:10;18.75;;;10.70;;
83232;SDS011;73119;42.642;23.332;2023-11-21T12:16:36;18.27;;;11.82;;
83232;SDS011;73119;42.642;23.332;2023-11-21T12:19:03;17.38;;;10.65;;
83232;SDS011;73119;42.642;23.332;2023-11-21T12:21:29;22.75;;;10.85;;
83232;SDS011;73119;42.642;23.332;2023-11-21T12:23:55;17.98;;;10.25;;
83232;SDS011;73119;42.642;23.332;2023-11-21T12:26:23;18.92;;;10.52;;
83232;SDS011;73119;42.642;23.332;2023-11-21T12:28:53;19.70;;;9.90;;
83232;SDS011;73119;42.642;23.332;2023-11-21T12:31:22;18.02;;;10.63;;
83232;SDS011;73119;42.642;23.332;2023-11-21T12:33:48;20.80;;;11.80;;
83232;SDS011;73119;42.642;23.332;2023-11-21T12:36:15;33.03;;;18.00;;
83232;SDS011;73119;42.642;23.332;2023-11-21T12:38:41;24.48;;;15.20;;
83232;SDS011;73119;42.642;23.332;2023-11-21T12:41:08;25.52;;;13.65;;
83232;SDS011;73119;42.642;23.332;2023-11-21T12:43:34;21.70;;;11.65;;
83232;SDS011;73119;42.642;23.332;2023-11-21T12:46:07;19.30;;;13.35;;
83232;SDS011;73119;42.642;23.332;2023-11-21T12:48:38;18.17;;;11.45;;
83232;SDS011;73119;42.642;23.332;2023-11-21T12:51:05;19.30;;;10.75;;
83232;SDS011;73119;42.642;23.332;2023-11-21T12:53:32;23.70;;;11.38;;
83232;SDS011;73119;42.642;23.332;2023-11-21T12:56:06;18.35;;;11.77;;
83232;SDS011;73119;42.642;23.332;2023-11-21T12:58:34;20.35;;;11.32;;
83232;SDS011;73119;42.642;23.332;2023-11-21T13:01:01;19.70;;;11.50;;
83232;SDS011;73119;42.642;23.332;2023-11-21T13:03:30;17.00;;;10.80;;
83232;SDS011;73119;42.642;23.332;2023-11-21T13:05:57;16.45;;;10.85;;
83232;SDS011;73119;42.642;23.332;2023-11-21T13:08:26;24.15;;;15.07;;
83232;SDS011;73119;42.642;23.332;2023-11-21T13:10:55;15.30;;;10.20;;
83232;SDS011;73119;42.642;23.332;2023-11-21T13:13:22;18.45;;;11.15;;
83232;SDS011;73119;42.642;23.332;2023-11-21T13:15:50;24.15;;;13.25;;
83232;SDS011;73119;42.642;23.332;2023-11-21T13:18:17;23.33;;;12.80;;
83232;SDS011;73119;42.642;23.332;2023-11-21T13:20:44;20.35;;;14.27;;
83232;SDS011;73119;42.642;23.332;2023-11-21T13:23:11;20.17;;;12.65;;
83232;SDS011;73119;42.642;23.332;2023-11-21T13:25:38;21.10;;;11.52;;
83232;SDS011;73119;42.642;23.332;2023-11-21T13:28:06;33.20;;;12.48;;
83232;SDS011;73119;42.642;23.332;2023-11-21T13:30:33;20.80;;;11.75;;
83232;SDS011;73119;42.642;23.332;2023-11-21T13:33:02;22.17;;;13.57;;
83232;SDS011;73119;42.642;23.332;2023-11-21T13:35:37;24.23;;;14.88;;
83232;SDS011;73119;42.642;23.332;2023-11-21T13:38:07;26.38;;;14.35;;
83232;SDS011;73119;42.642;23.332;2023-11-21T13:40:34;25.35;;;13.82;;
83232;SDS011;73119;42.642;23.332;2023-11-21T13:43:07;16.65;;;10.73;;
83232;SDS011;73119;42.642;23.332;2023-11-21T13:45:35;20.02;;;11.90;;
83232;SDS011;73119;42.642;23.332;2023-11-21T13:48:01;33.40;;;17.40;;
83232;SDS011;73119;42.642;23.332;2023-11-21T13:50:30;24.25;;;14.40;;
83232;SDS011;73119;42.642;23.332;2023-11-21T13:53:01;26.63;;;13.60;;
83232;SDS011;73119;42.642;23.332;2023-11-21T13:55:47;26.38;;;12.85;;
83232;SDS011;73119;42.642;23.332;2023-11-21T13:58:14;35.63;;;21.90;;
83232;SDS011;73119;42.642;23.332;2023-11-21T14:00:47;38.50;;;20.85;;
83232;SDS011;73119;42.642;23.332;2023-11-21T14:03:17;25.83;;;15.60;;
83232;SDS011;73119;42.642;23.332;2023-11-21T14:05:49;25.90;;;13.13;;
83232;SDS011;73119;42.642;23.332;2023-11-21T14:08:20;23.38;;;13.65;;
83232;SDS011;73119;42.642;23.332;2023-11-21T14:10:48;24.17;;;13.15;;
83232;SDS011;73119;42.642;23.332;2023-11-21T14:13:18;21.98;;;12.30;;
83232;SDS011;73119;42.642;23.332;2023-11-21T14:15:48;20.40;;;12.75;;
83232;SDS011;73119;42.642;23.332;2023-11-21T14:18:22;23.35;;;13.65;;
83232;SDS011;73119;42.642;23.332;2023-11-21T14:20:59;30.08;;;14.15;;
83232;SDS011;73119;42.642;23.332;2023-11-21T14:23:25;30.98;;;13.35;;
83232;SDS011;73119;42.642;23.332;2023-11-21T14:25:51;28.38;;;13.57;;
83232;SDS011;73119;42.642;23.332;2023-11-21T14:28:18;24.40;;;13.88;;
83232;SDS011;73119;42.642;23.332;2023-11-21T14:30:45;23.75;;;15.32;;
83232;SDS011;73119;42.642;23.332;2023-11-21T14:33:11;29.05;;;13.45;;
83232;SDS011;73119;42.642;23.332;2023-11-21T14:35:38;24.42;;;13.77;;
83232;SDS011;73119;42.642;23.332;2023-11-21T14:38:04;27.70;;;15.20;;
83232;SDS011;73119;42.642;23.332;2023-11-21T14:40:31;32.60;;;17.00;;
83232;SDS011;73119;42.642;23.332;2023-11-21T14:43:01;24.50;;;13.88;;
83232;SDS011;73119;42.642;23.332;2023-11-21T14:45:30;28.55;;;14.88;;
83232;SDS011;73119;42.642;23.332;2023-11-21T14:47:57;30.40;;;14.40;;
83232;SDS011;73119;42.642;23.332;2023-11-21T14:50:51;28.83;;;16.85;;
83232;SDS011;73119;42.642;23.332;2023-11-21T14:53:26;57.00;;;29.58;;
83232;SDS011;73119;42.642;23.332;2023-11-21T14:56:18;25.08;;;13.30;;